createdAt,value
2023-06-07T00:00:06.890Z,15.20
2023-06-07T00:02:44.323Z,15.20
2023-06-07T00:05:16.202Z,15.30
2023-06-07T00:07:46.912Z,15.20
2023-06-07T00:10:15.298Z,15.20
2023-06-07T00:12:44.552Z,15.20
2023-06-07T00:15:13.488Z,15.20
2023-06-07T00:17:43.050Z,15.10
2023-06-07T00:20:14.649Z,15.10
2023-06-07T00:22:43.515Z,15.10
2023-06-07T00:25:14.449Z,15.00
2023-06-07T00:27:42.687Z,15.00
2023-06-07T00:30:12.709Z,15.00
2023-06-07T00:32:41.658Z,15.00
2023-06-07T00:35:12.675Z,14.90
2023-06-07T00:37:41.854Z,14.90
2023-06-07T00:40:13.104Z,14.80
2023-06-07T00:42:41.836Z,14.70
2023-06-07T00:45:11.527Z,14.70
2023-06-07T00:47:41.398Z,14.70
2023-06-07T00:50:11.793Z,14.70
2023-06-07T00:52:41.456Z,14.60
2023-06-07T00:55:15.237Z,14.60
2023-06-07T00:57:44.148Z,14.60
2023-06-07T01:00:15.049Z,14.60
2023-06-07T01:02:48.293Z,14.50
2023-06-07T01:05:17.477Z,14.50
2023-06-07T01:07:50.933Z,14.40
2023-06-07T01:10:20.965Z,14.30
2023-06-07T01:12:55.520Z,14.20
2023-06-07T01:15:25.542Z,14.30
2023-06-07T01:17:55.959Z,14.20
2023-06-07T01:20:27.731Z,14.10
2023-06-07T01:23:00.360Z,14.10
2023-06-07T01:25:30.683Z,14.10
2023-06-07T01:28:02.420Z,14.00
2023-06-07T01:30:32.971Z,14.00
2023-06-07T01:33:05.578Z,14.00
2023-06-07T01:35:36.768Z,14.00
2023-06-07T01:38:06.782Z,14.00
2023-06-07T01:40:39.790Z,14.10
2023-06-07T01:43:09.751Z,14.10
2023-06-07T01:45:38.595Z,14.10
2023-06-07T01:48:08.746Z,14.10
2023-06-07T01:50:37.665Z,14.20
2023-06-07T01:53:07.238Z,14.20
2023-06-07T01:55:37.661Z,14.20
2023-06-07T01:58:17.077Z,14.20
2023-06-07T02:00:59.148Z,14.20
2023-06-07T02:03:36.347Z,14.20
2023-06-07T02:06:13.052Z,14.20
2023-06-07T02:08:50.747Z,14.10
2023-06-07T02:11:22.314Z,14.00
2023-06-07T02:13:52.693Z,13.80
2023-06-07T02:16:36.456Z,13.70
2023-06-07T02:19:08.060Z,13.60
2023-06-07T02:21:51.120Z,13.60
2023-06-07T02:24:20.957Z,13.40
2023-06-07T02:26:50.721Z,13.40
2023-06-07T02:29:22.811Z,13.40
2023-06-07T02:31:51.528Z,13.40
2023-06-07T02:34:20.333Z,13.40
2023-06-07T02:36:48.782Z,13.40
2023-06-07T02:39:18.252Z,13.50
2023-06-07T02:41:46.684Z,13.60
2023-06-07T02:44:16.588Z,13.60
2023-06-07T02:46:45.211Z,13.60
2023-06-07T02:49:13.884Z,13.60
2023-06-07T02:51:43.384Z,13.50
2023-06-07T02:54:12.595Z,13.50
2023-06-07T02:56:42.355Z,13.50
2023-06-07T02:59:10.878Z,13.40
2023-06-07T03:01:45.208Z,13.40
2023-06-07T03:04:14.402Z,13.30
2023-06-07T03:06:43.827Z,13.30
2023-06-07T03:09:20.466Z,13.30
2023-06-07T03:11:50.557Z,13.30
2023-06-07T03:14:20.827Z,13.30
2023-06-07T03:16:53.886Z,13.30
2023-06-07T03:19:23.634Z,13.30
2023-06-07T03:21:54.887Z,13.20
2023-06-07T03:24:25.126Z,13.20
2023-06-07T03:26:54.726Z,13.00
2023-06-07T03:29:25.829Z,13.00
2023-06-07T03:31:56.028Z,13.00
2023-06-07T03:34:24.737Z,13.00
2023-06-07T03:36:54.448Z,13.00
2023-06-07T03:39:23.077Z,12.90
2023-06-07T03:41:52.196Z,12.90
2023-06-07T03:44:25.273Z,12.90
2023-06-07T03:46:55.957Z,12.90
2023-06-07T03:49:24.136Z,12.90
2023-06-07T03:51:53.741Z,12.90
2023-06-07T03:54:22.413Z,12.90
2023-06-07T03:56:51.767Z,12.90
2023-06-07T03:59:22.098Z,13.00
2023-06-07T04:01:50.842Z,13.00
2023-06-07T04:04:20.954Z,13.00
2023-06-07T04:06:50.075Z,13.10
2023-06-07T04:09:20.837Z,13.20
2023-06-07T04:11:49.578Z,13.30
2023-06-07T04:14:18.935Z,13.40
2023-06-07T04:16:48.531Z,13.40
2023-06-07T04:19:18.817Z,13.50
2023-06-07T04:21:49.934Z,13.50
2023-06-07T04:24:20.636Z,13.60
2023-06-07T04:26:51.005Z,13.60
2023-06-07T04:29:22.684Z,13.60
2023-06-07T04:31:53.878Z,13.70
2023-06-07T04:34:23.867Z,13.80
2023-06-07T04:36:54.335Z,13.90
2023-06-07T04:39:24.349Z,13.90
2023-06-07T04:41:55.305Z,14.10
2023-06-07T04:44:30.871Z,14.10
2023-06-07T04:47:14.357Z,14.10
2023-06-07T04:49:45.089Z,14.10
2023-06-07T04:52:15.962Z,14.10
2023-06-07T04:54:49.195Z,14.20
2023-06-07T04:57:20.331Z,14.20
2023-06-07T04:59:52.527Z,14.20
2023-06-07T05:02:26.849Z,14.30
2023-06-07T05:04:59.058Z,14.30
2023-06-07T05:07:33.874Z,14.40
2023-06-07T05:10:05.795Z,14.50
2023-06-07T05:12:35.144Z,14.60
2023-06-07T05:15:04.921Z,14.70
2023-06-07T05:17:35.719Z,14.90
2023-06-07T05:20:07.519Z,15.00
2023-06-07T05:22:40.882Z,15.10
2023-06-07T05:25:12.286Z,15.10
2023-06-07T05:27:41.336Z,15.20
2023-06-07T05:30:11.960Z,15.30
2023-06-07T05:32:42.422Z,15.30
2023-06-07T05:35:11.492Z,15.40
2023-06-07T05:37:43.607Z,15.50
2023-06-07T05:40:17.214Z,15.60
2023-06-07T05:42:46.183Z,15.60
2023-06-07T05:45:15.381Z,15.80
2023-06-07T05:47:44.965Z,15.80
2023-06-07T05:50:13.990Z,15.90
2023-06-07T05:52:43.821Z,15.90
2023-06-07T05:55:12.503Z,15.80
2023-06-07T05:57:41.530Z,15.90
2023-06-07T06:00:12.728Z,16.00
2023-06-07T06:02:44.465Z,16.10
2023-06-07T06:05:13.054Z,16.20
2023-06-07T06:07:41.375Z,16.30
2023-06-07T06:10:13.771Z,16.40
2023-06-07T06:12:41.963Z,16.50
2023-06-07T06:15:11.298Z,16.70
2023-06-07T06:17:40.441Z,16.80
2023-06-07T06:20:10.413Z,16.90
2023-06-07T06:22:38.924Z,17.10
2023-06-07T06:25:08.519Z,17.30
2023-06-07T06:27:38.988Z,17.30
2023-06-07T06:30:09.938Z,17.50
2023-06-07T06:32:38.652Z,17.50
2023-06-07T06:35:08.454Z,17.70
2023-06-07T06:37:37.068Z,17.80
2023-06-07T06:40:07.052Z,17.90
2023-06-07T06:42:37.155Z,18.00
2023-06-07T06:45:32.084Z,18.10
2023-06-07T06:48:00.898Z,18.20
2023-06-07T06:50:33.452Z,18.30
2023-06-07T06:53:03.214Z,18.40
2023-06-07T06:55:32.238Z,18.50
2023-06-07T06:58:05.203Z,18.60
2023-06-07T07:00:36.855Z,18.60
2023-06-07T07:03:05.633Z,18.70
2023-06-07T07:05:34.646Z,18.70
2023-06-07T07:08:04.774Z,18.80
2023-06-07T07:10:33.381Z,18.90
2023-06-07T07:13:03.661Z,19.00
2023-06-07T07:15:31.807Z,19.10
2023-06-07T07:18:00.767Z,19.20
2023-06-07T07:20:29.525Z,19.20
2023-06-07T07:22:59.978Z,19.20
2023-06-07T07:25:28.339Z,19.30
2023-06-07T07:27:57.328Z,19.50
2023-06-07T07:30:27.632Z,19.50
2023-06-07T07:32:56.828Z,19.70
2023-06-07T07:35:28.845Z,19.80
2023-06-07T07:38:01.940Z,19.90
2023-06-07T07:40:31.023Z,20.00
2023-06-07T07:43:00.847Z,20.00
2023-06-07T07:45:30.567Z,20.00
2023-06-07T07:47:58.915Z,20.10
2023-06-07T07:50:27.639Z,20.10
2023-06-07T07:52:57.866Z,20.10
2023-06-07T07:55:26.843Z,20.10
2023-06-07T07:57:55.072Z,20.20
2023-06-07T08:00:25.344Z,20.20
2023-06-07T08:02:55.216Z,20.20
2023-06-07T08:05:23.959Z,20.30
2023-06-07T08:07:54.142Z,20.40
2023-06-07T08:10:22.940Z,20.50
2023-06-07T08:12:51.461Z,20.50
2023-06-07T08:15:20.361Z,20.50
2023-06-07T08:17:51.326Z,20.50
2023-06-07T08:20:23.077Z,20.50
2023-06-07T08:22:52.563Z,20.50
2023-06-07T08:25:21.438Z,20.50
2023-06-07T08:27:50.550Z,20.50
2023-06-07T08:30:19.968Z,20.50
2023-06-07T08:32:48.886Z,20.50
2023-06-07T08:35:18.249Z,20.50
2023-06-07T08:37:47.839Z,20.50
2023-06-07T08:40:20.410Z,20.60
2023-06-07T08:42:49.145Z,20.70
2023-06-07T08:45:17.968Z,20.70
2023-06-07T08:47:47.328Z,20.80
2023-06-07T08:50:17.737Z,20.80
2023-06-07T08:52:55.317Z,20.80
2023-06-07T08:55:26.785Z,20.80
2023-06-07T08:57:57.096Z,20.90
2023-06-07T09:00:26.963Z,20.90
2023-06-07T09:02:55.991Z,21.00
2023-06-07T09:05:25.234Z,21.00
2023-06-07T09:07:55.313Z,21.10
2023-06-07T09:10:23.973Z,21.10
2023-06-07T09:12:52.881Z,21.20
2023-06-07T09:15:23.851Z,21.30
2023-06-07T09:18:00.668Z,21.30
2023-06-07T09:20:33.146Z,21.40
2023-06-07T09:23:04.247Z,21.50
2023-06-07T09:25:34.248Z,21.60
2023-06-07T09:28:05.603Z,21.50
2023-06-07T09:30:34.514Z,21.70
2023-06-07T09:33:04.477Z,21.80
2023-06-07T09:35:33.329Z,21.90
2023-06-07T09:38:05.277Z,21.90
2023-06-07T09:40:33.576Z,21.90
2023-06-07T09:43:02.365Z,21.90
2023-06-07T09:45:31.644Z,22.00
2023-06-07T09:48:07.942Z,22.10
2023-06-07T09:50:36.977Z,22.10
2023-06-07T09:53:06.872Z,22.20
2023-06-07T09:55:35.459Z,22.30
2023-06-07T09:58:19.606Z,22.30
2023-06-07T10:00:48.553Z,22.30
2023-06-07T10:03:18.775Z,22.50
2023-06-07T10:05:47.702Z,22.50
2023-06-07T10:08:18.105Z,22.60
2023-06-07T10:10:50.904Z,22.70
2023-06-07T10:13:21.898Z,22.90
2023-06-07T10:15:51.408Z,23.00
2023-06-07T10:18:27.509Z,23.10
2023-06-07T10:21:04.294Z,23.20
2023-06-07T10:23:58.505Z,23.30
2023-06-07T10:26:37.072Z,23.30
2023-06-07T10:29:13.737Z,23.40
2023-06-07T10:31:49.607Z,23.60
2023-06-07T10:34:21.019Z,23.60
2023-06-07T10:36:49.340Z,23.60
2023-06-07T10:39:19.975Z,23.70
2023-06-07T10:41:49.824Z,23.60
2023-06-07T10:44:18.684Z,23.40
2023-06-07T10:46:49.194Z,23.30
2023-06-07T10:49:38.241Z,23.40
2023-06-07T10:52:09.109Z,23.50
2023-06-07T10:54:39.358Z,23.70
2023-06-07T10:57:08.072Z,23.80
2023-06-07T10:59:37.329Z,24.00
2023-06-07T11:02:28.632Z,24.30
2023-06-07T11:05:00.035Z,24.50
2023-06-07T11:07:32.522Z,24.70
2023-06-07T11:10:37.464Z,24.80
2023-06-07T11:13:05.765Z,24.80
2023-06-07T11:15:37.371Z,25.10
2023-06-07T11:18:15.684Z,25.30
2023-06-07T11:20:53.712Z,25.70
2023-06-07T11:23:28.645Z,26.00
2023-06-07T11:26:10.089Z,26.60
2023-06-07T11:28:41.987Z,27.20
2023-06-07T11:31:13.660Z,27.80
2023-06-07T11:33:43.574Z,28.50
2023-06-07T11:36:12.245Z,29.20
2023-06-07T11:38:41.961Z,29.90
2023-06-07T11:41:12.565Z,30.30
2023-06-07T11:43:42.258Z,30.50
2023-06-07T11:46:17.249Z,30.60
2023-06-07T11:48:46.800Z,30.80
2023-06-07T11:51:16.957Z,31.20
2023-06-07T11:53:47.854Z,31.40
2023-06-07T11:56:17.781Z,31.60
2023-06-07T11:58:46.501Z,31.80
2023-06-07T12:01:18.016Z,32.10
2023-06-07T12:03:47.569Z,32.50
2023-06-07T12:06:16.191Z,32.80
2023-06-07T12:08:44.820Z,33.20
2023-06-07T12:11:14.318Z,33.20
2023-06-07T12:13:43.896Z,33.40
2023-06-07T12:16:14.002Z,33.90
2023-06-07T12:18:44.216Z,34.00
2023-06-07T12:21:14.929Z,33.90
2023-06-07T12:23:49.385Z,33.90
2023-06-07T12:26:22.495Z,34.30
2023-06-07T12:28:53.450Z,34.60
2023-06-07T12:31:24.366Z,35.30
2023-06-07T12:33:58.171Z,35.90
2023-06-07T12:36:30.842Z,36.30
2023-06-07T12:39:01.873Z,36.50
2023-06-07T12:41:30.716Z,36.10
2023-06-07T12:44:04.161Z,36.30
2023-06-07T12:46:33.855Z,36.80
2023-06-07T12:49:02.465Z,36.60
2023-06-07T12:51:31.786Z,36.80
2023-06-07T12:54:00.847Z,36.70
2023-06-07T12:56:29.915Z,37.20
2023-06-07T12:59:01.249Z,37.50
2023-06-07T13:01:32.898Z,37.30
2023-06-07T13:04:02.121Z,37.70
2023-06-07T13:06:30.981Z,38.00
2023-06-07T13:09:03.573Z,38.20
2023-06-07T13:11:31.799Z,38.60
2023-06-07T13:14:00.394Z,38.60
2023-06-07T13:16:32.524Z,38.60
2023-06-07T13:19:01.951Z,38.80
2023-06-07T13:21:31.340Z,38.60
2023-06-07T13:24:00.370Z,39.00
2023-06-07T13:26:29.409Z,39.40
2023-06-07T13:28:57.732Z,39.60
2023-06-07T13:31:27.353Z,39.80
2023-06-07T13:33:57.031Z,39.30
2023-06-07T13:36:26.178Z,38.80
2023-06-07T13:38:55.641Z,39.30
2023-06-07T13:41:24.543Z,39.40
2023-06-07T13:44:03.959Z,39.50
2023-06-07T13:46:42.421Z,39.10
2023-06-07T13:49:13.464Z,39.20
2023-06-07T13:51:42.240Z,39.30
2023-06-07T13:54:10.833Z,39.80
2023-06-07T13:56:39.779Z,39.80
2023-06-07T13:59:08.131Z,40.10
2023-06-07T14:01:38.989Z,40.20
2023-06-07T14:04:08.656Z,40.10
2023-06-07T14:06:40.188Z,40.10
2023-06-07T14:09:08.615Z,40.70
2023-06-07T14:11:39.353Z,40.70
2023-06-07T14:14:07.525Z,40.50
2023-06-07T14:16:36.095Z,40.30
2023-06-07T14:19:04.519Z,40.30
2023-06-07T14:21:34.068Z,40.10
2023-06-07T14:24:04.033Z,39.90
2023-06-07T14:26:32.445Z,40.10
2023-06-07T14:29:01.415Z,40.30
2023-06-07T14:31:30.303Z,40.40
2023-06-07T14:33:59.136Z,40.90
2023-06-07T14:36:27.869Z,40.70
2023-06-07T14:38:56.672Z,40.80
2023-06-07T14:41:27.334Z,40.50
2023-06-07T14:43:56.836Z,40.40
2023-06-07T14:46:25.299Z,40.70
2023-06-07T14:48:54.057Z,41.40
2023-06-07T14:51:24.726Z,41.50
2023-06-07T14:53:52.972Z,40.60
2023-06-07T14:56:22.290Z,40.70
2023-06-07T14:58:52.118Z,40.80
2023-06-07T15:01:20.754Z,40.50
2023-06-07T15:03:49.285Z,40.40
2023-06-07T15:06:18.463Z,40.70
2023-06-07T15:08:48.180Z,40.70
2023-06-07T15:11:17.238Z,40.80
2023-06-07T15:13:45.761Z,40.70
2023-06-07T15:16:15.734Z,39.80
2023-06-07T15:18:45.345Z,38.00
2023-06-07T15:21:13.692Z,36.30
2023-06-07T15:23:42.930Z,35.30
2023-06-07T15:26:11.249Z,34.20
2023-06-07T15:28:40.164Z,33.40
2023-06-07T15:31:10.572Z,32.50
2023-06-07T15:33:41.284Z,32.10
2023-06-07T15:36:09.657Z,31.80
2023-06-07T15:38:39.201Z,31.20
2023-06-07T15:41:09.575Z,30.70
2023-06-07T15:43:38.054Z,30.40
2023-06-07T15:46:06.820Z,30.10
2023-06-07T15:48:36.456Z,29.70
2023-06-07T15:51:06.985Z,29.70
2023-06-07T15:53:35.691Z,29.80
2023-06-07T15:56:06.154Z,29.60
2023-06-07T15:58:34.670Z,29.50
2023-06-07T16:01:03.042Z,29.20
2023-06-07T16:03:46.346Z,29.30
2023-06-07T16:06:22.241Z,29.20
2023-06-07T16:08:51.283Z,29.30
2023-06-07T16:11:20.594Z,29.20
2023-06-07T16:13:48.735Z,29.10
2023-06-07T16:16:17.704Z,28.90
2023-06-07T16:18:45.915Z,29.00
2023-06-07T16:21:15.203Z,29.00
2023-06-07T16:23:45.207Z,28.70
2023-06-07T16:26:13.692Z,28.70
2023-06-07T16:28:42.313Z,28.80
2023-06-07T16:31:10.664Z,28.90
2023-06-07T16:33:39.764Z,28.80
2023-06-07T16:36:08.750Z,28.60
2023-06-07T16:38:37.095Z,28.20
2023-06-07T16:41:07.835Z,28.00
2023-06-07T16:43:36.556Z,27.80
2023-06-07T16:46:05.090Z,27.50
2023-06-07T16:48:33.308Z,27.40
2023-06-07T16:51:01.690Z,27.30
2023-06-07T16:53:30.037Z,27.20
2023-06-07T16:55:58.656Z,27.20
2023-06-07T16:58:28.706Z,27.00
2023-06-07T17:00:57.101Z,26.90
2023-06-07T17:03:25.778Z,26.90
2023-06-07T17:05:54.743Z,26.70
2023-06-07T17:08:23.253Z,26.70
2023-06-07T17:10:51.911Z,26.60
2023-06-07T17:13:20.125Z,26.60
2023-06-07T17:15:51.036Z,26.50
2023-06-07T17:18:22.102Z,26.40
2023-06-07T17:20:51.024Z,26.30
2023-06-07T17:23:20.043Z,26.20
2023-06-07T17:25:48.435Z,26.10
2023-06-07T17:28:17.522Z,26.00
2023-06-07T17:30:46.232Z,25.90
2023-06-07T17:33:15.899Z,25.90
2023-06-07T17:35:45.171Z,25.80
2023-06-07T17:38:13.627Z,25.80
2023-06-07T17:40:41.786Z,25.70
2023-06-07T17:43:10.643Z,25.70
2023-06-07T17:45:39.018Z,25.60
2023-06-07T17:48:08.307Z,25.60
2023-06-07T17:50:46.895Z,25.50
2023-06-07T17:53:15.943Z,25.40
2023-06-07T17:55:46.785Z,25.30
2023-06-07T17:58:15.875Z,25.30
2023-06-07T18:00:44.105Z,25.20
2023-06-07T18:03:13.148Z,25.10
2023-06-07T18:05:43.466Z,24.90
2023-06-07T18:08:11.767Z,24.80
2023-06-07T18:10:40.408Z,24.70
2023-06-07T18:13:08.555Z,24.70
2023-06-07T18:15:37.365Z,24.60
2023-06-07T18:18:06.412Z,24.50
2023-06-07T18:20:35.078Z,24.40
2023-06-07T18:23:06.469Z,24.30
2023-06-07T18:25:35.102Z,24.30
2023-06-07T18:28:03.505Z,24.10
2023-06-07T18:30:32.830Z,24.00
2023-06-07T18:33:01.416Z,23.90
2023-06-07T18:35:33.711Z,23.80
2023-06-07T18:38:02.563Z,23.80
2023-06-07T18:40:33.900Z,23.60
2023-06-07T18:43:02.134Z,23.50
2023-06-07T18:45:30.360Z,23.40
2023-06-07T18:47:58.902Z,23.40
2023-06-07T18:50:27.928Z,23.30
2023-06-07T18:52:57.426Z,23.20
2023-06-07T18:55:25.721Z,23.10
2023-06-07T18:57:55.403Z,23.10
2023-06-07T19:00:24.153Z,22.90
2023-06-07T19:02:53.532Z,22.80
2023-06-07T19:05:22.823Z,22.70
2023-06-07T19:07:51.420Z,22.50
2023-06-07T19:10:20.090Z,22.40
2023-06-07T19:12:48.204Z,22.30
2023-06-07T19:15:18.937Z,22.20
2023-06-07T19:17:47.317Z,22.10
2023-06-07T19:20:16.560Z,21.90
2023-06-07T19:22:45.376Z,21.80
2023-06-07T19:25:14.168Z,21.70
2023-06-07T19:27:44.245Z,21.50
2023-06-07T19:30:15.096Z,21.40
2023-06-07T19:32:45.176Z,21.30
2023-06-07T19:35:15.125Z,21.20
2023-06-07T19:37:43.390Z,21.10
2023-06-07T19:40:16.710Z,21.00
2023-06-07T19:42:45.835Z,21.00
2023-06-07T19:45:15.352Z,20.90
2023-06-07T19:47:45.965Z,20.80
2023-06-07T19:50:15.362Z,20.70
2023-06-07T19:52:43.520Z,20.60
2023-06-07T19:55:12.521Z,20.50
2023-06-07T19:57:41.940Z,20.40
2023-06-07T20:00:12.064Z,20.30
2023-06-07T20:02:45.446Z,20.20
2023-06-07T20:05:14.703Z,20.10
2023-06-07T20:07:43.207Z,20.00
2023-06-07T20:10:12.142Z,19.90
2023-06-07T20:12:40.999Z,19.80
2023-06-07T20:15:11.339Z,19.70
2023-06-07T20:17:39.722Z,19.70
2023-06-07T20:20:11.904Z,19.60
2023-06-07T20:22:40.105Z,19.60
2023-06-07T20:25:09.483Z,19.40
2023-06-07T20:27:37.867Z,19.40
2023-06-07T20:30:08.562Z,19.30
2023-06-07T20:32:38.624Z,19.30
2023-06-07T20:35:09.819Z,19.20
2023-06-07T20:37:39.046Z,19.10
2023-06-07T20:40:09.354Z,19.10
2023-06-07T20:42:38.194Z,19.00
2023-06-07T20:45:07.846Z,18.90
2023-06-07T20:47:36.608Z,18.90
2023-06-07T20:50:05.652Z,18.90
2023-06-07T20:52:35.988Z,18.80
2023-06-07T20:55:05.396Z,18.70
2023-06-07T20:57:33.887Z,18.60
2023-06-07T21:00:04.401Z,18.60
2023-06-07T21:02:36.296Z,18.60
2023-06-07T21:05:05.533Z,18.50
2023-06-07T21:07:35.087Z,18.50
2023-06-07T21:10:03.415Z,18.40
2023-06-07T21:12:32.480Z,18.40
2023-06-07T21:15:01.245Z,18.40
2023-06-07T21:17:30.656Z,18.40
2023-06-07T21:19:59.178Z,18.40
2023-06-07T21:22:28.389Z,18.40
2023-06-07T21:24:58.441Z,18.30
2023-06-07T21:27:26.597Z,18.30
2023-06-07T21:29:55.362Z,18.30
2023-06-07T21:32:23.806Z,18.30
2023-06-07T21:34:52.392Z,18.30
2023-06-07T21:37:21.129Z,18.20
2023-06-07T21:39:49.787Z,18.20
2023-06-07T21:42:19.606Z,18.10
2023-06-07T21:44:48.058Z,18.10
2023-06-07T21:47:16.527Z,18.10
2023-06-07T21:49:44.801Z,18.10
2023-06-07T21:52:12.946Z,18.00
2023-06-07T21:54:45.600Z,18.00
2023-06-07T21:57:15.024Z,18.00
2023-06-07T21:59:45.008Z,18.00
2023-06-07T22:02:13.653Z,17.90
2023-06-07T22:04:43.119Z,17.90
2023-06-07T22:07:11.366Z,17.90
2023-06-07T22:09:39.768Z,17.90
2023-06-07T22:12:11.527Z,17.80
2023-06-07T22:14:41.783Z,17.80
2023-06-07T22:17:12.120Z,17.70
2023-06-07T22:19:41.939Z,17.70
2023-06-07T22:22:11.190Z,17.60
2023-06-07T22:24:39.517Z,17.50
2023-06-07T22:27:10.614Z,17.60
2023-06-07T22:29:39.221Z,17.50
2023-06-07T22:32:09.120Z,17.50
2023-06-07T22:34:41.061Z,17.40
2023-06-07T22:37:10.008Z,17.40
2023-06-07T22:39:38.510Z,17.30
2023-06-07T22:42:08.260Z,17.30
2023-06-07T22:44:38.848Z,17.30
2023-06-07T22:47:07.853Z,17.20
2023-06-07T22:49:37.486Z,17.20
2023-06-07T22:52:08.407Z,17.20
2023-06-07T22:54:37.112Z,17.10
2023-06-07T22:57:06.513Z,17.10
2023-06-07T22:59:34.895Z,17.10
2023-06-07T23:02:04.786Z,17.00
2023-06-07T23:04:34.584Z,16.90
2023-06-07T23:07:03.718Z,16.80
2023-06-07T23:09:33.258Z,16.70
2023-06-07T23:12:01.798Z,16.80
2023-06-07T23:14:30.754Z,16.70
2023-06-07T23:17:00.818Z,16.70
2023-06-07T23:19:29.104Z,16.70
2023-06-07T23:21:58.411Z,16.70
2023-06-07T23:24:28.778Z,16.70
2023-06-07T23:27:00.139Z,16.70
2023-06-07T23:29:29.116Z,16.70
2023-06-07T23:31:57.851Z,16.70
2023-06-07T23:34:26.705Z,16.70
2023-06-07T23:36:55.263Z,16.60
2023-06-07T23:39:23.967Z,16.60
2023-06-07T23:41:55.460Z,16.60
2023-06-07T23:44:27.303Z,16.70
2023-06-07T23:46:56.703Z,16.80
2023-06-07T23:49:32.698Z,16.90
2023-06-07T23:52:01.045Z,16.80
2023-06-07T23:54:29.751Z,16.90
2023-06-07T23:56:58.518Z,16.90
2023-06-07T23:59:28.447Z,16.90
